sensor_id;sensor_type;location;lat;lon;timestamp;P1;durP1;ratioP1;P2;durP2;ratioP2
70796;SDS011;63842;52.144;5.360;2024-03-02T00:00:20;4.88;;;1.27;;
70796;SDS011;63842;52.144;5.360;2024-03-02T00:02:48;6.07;;;1.30;;
70796;SDS011;63842;52.144;5.360;2024-03-02T00:05:20;4.72;;;1.40;;
70796;SDS011;63842;52.144;5.360;2024-03-02T00:07:52;3.90;;;1.30;;
70796;SDS011;63842;52.144;5.360;2024-03-02T00:10:28;7.22;;;1.50;;
70796;SDS011;63842;52.144;5.360;2024-03-02T00:13:01;5.68;;;1.20;;
70796;SDS011;63842;52.144;5.360;2024-03-02T00:17:58;4.60;;;1.38;;
70796;SDS011;63842;52.144;5.360;2024-03-02T00:20:26;3.63;;;1.15;;
70796;SDS011;63842;52.144;5.360;2024-03-02T00:22:55;3.08;;;1.33;;
70796;SDS011;63842;52.144;5.360;2024-03-02T00:25:25;4.43;;;1.48;;
70796;SDS011;63842;52.144;5.360;2024-03-02T00:27:53;4.00;;;1.30;;
70796;SDS011;63842;52.144;5.360;2024-03-02T00:31:03;3.70;;;1.15;;
70796;SDS011;63842;52.144;5.360;2024-03-02T00:33:11;4.25;;;1.48;;
70796;SDS011;63842;52.144;5.360;2024-03-02T00:35:39;4.85;;;1.20;;
70796;SDS011;63842;52.144;5.360;2024-03-02T00:38:07;3.95;;;1.30;;
70796;SDS011;63842;52.144;5.360;2024-03-02T00:40:34;4.65;;;1.40;;
70796;SDS011;63842;52.144;5.360;2024-03-02T00:43:02;3.67;;;1.23;;
70796;SDS011;63842;52.144;5.360;2024-03-02T00:45:34;4.07;;;1.10;;
70796;SDS011;63842;52.144;5.360;2024-03-02T00:48:01;4.03;;;0.80;;
70796;SDS011;63842;52.144;5.360;2024-03-02T00:50:28;1.80;;;0.90;;
70796;SDS011;63842;52.144;5.360;2024-03-02T00:52:56;2.60;;;1.05;;
70796;SDS011;63842;52.144;5.360;2024-03-02T00:55:27;2.28;;;0.80;;
70796;SDS011;63842;52.144;5.360;2024-03-02T00:57:54;1.75;;;0.60;;
70796;SDS011;63842;52.144;5.360;2024-03-02T01:00:22;4.85;;;0.80;;
70796;SDS011;63842;52.144;5.360;2024-03-02T01:02:52;2.30;;;0.80;;
70796;SDS011;63842;52.144;5.360;2024-03-02T01:05:19;2.17;;;0.68;;
70796;SDS011;63842;52.144;5.360;2024-03-02T01:07:47;0.93;;;0.52;;
70796;SDS011;63842;52.144;5.360;2024-03-02T01:10:14;1.80;;;0.80;;
70796;SDS011;63842;52.144;5.360;2024-03-02T01:12:42;0.50;;;0.50;;
70796;SDS011;63842;52.144;5.360;2024-03-02T01:15:09;1.33;;;0.60;;
70796;SDS011;63842;52.144;5.360;2024-03-02T01:17:37;1.10;;;0.60;;
70796;SDS011;63842;52.144;5.360;2024-03-02T01:20:07;1.65;;;0.60;;
70796;SDS011;63842;52.144;5.360;2024-03-02T01:22:37;0.75;;;0.50;;
70796;SDS011;63842;52.144;5.360;2024-03-02T01:25:04;1.05;;;0.50;;
70796;SDS011;63842;52.144;5.360;2024-03-02T01:27:34;2.20;;;0.70;;
70796;SDS011;63842;52.144;5.360;2024-03-02T01:30:01;2.53;;;0.60;;
70796;SDS011;63842;52.144;5.360;2024-03-02T01:32:29;0.47;;;0.43;;
70796;SDS011;63842;52.144;5.360;2024-03-02T01:34:56;1.67;;;0.65;;
70796;SDS011;63842;52.144;5.360;2024-03-02T01:37:23;1.17;;;0.55;;
70796;SDS011;63842;52.144;5.360;2024-03-02T01:46:34;0.73;;;0.47;;
70796;SDS011;63842;52.144;5.360;2024-03-02T01:49:02;1.60;;;0.65;;
70796;SDS011;63842;52.144;5.360;2024-03-02T01:51:30;1.67;;;0.60;;
70796;SDS011;63842;52.144;5.360;2024-03-02T01:53:58;1.35;;;0.55;;
70796;SDS011;63842;52.144;5.360;2024-03-02T01:56:25;0.90;;;0.50;;
70796;SDS011;63842;52.144;5.360;2024-03-02T01:58:53;1.13;;;0.60;;
70796;SDS011;63842;52.144;5.360;2024-03-02T02:01:20;1.23;;;0.60;;
70796;SDS011;63842;52.144;5.360;2024-03-02T02:03:48;1.90;;;0.50;;
70796;SDS011;63842;52.144;5.360;2024-03-02T02:06:15;0.73;;;0.50;;
70796;SDS011;63842;52.144;5.360;2024-03-02T02:08:43;3.25;;;0.50;;
70796;SDS011;63842;52.144;5.360;2024-03-02T02:11:11;2.10;;;0.70;;
70796;SDS011;63842;52.144;5.360;2024-03-02T02:13:41;0.68;;;0.50;;
70796;SDS011;63842;52.144;5.360;2024-03-02T02:16:09;0.47;;;0.47;;
70796;SDS011;63842;52.144;5.360;2024-03-02T02:18:38;2.65;;;0.80;;
70796;SDS011;63842;52.144;5.360;2024-03-02T02:21:06;1.58;;;0.55;;
70796;SDS011;63842;52.144;5.360;2024-03-02T02:23:34;1.20;;;0.50;;
70796;SDS011;63842;52.144;5.360;2024-03-02T02:26:01;0.88;;;0.45;;
70796;SDS011;63842;52.144;5.360;2024-03-02T02:28:30;2.13;;;0.60;;
70796;SDS011;63842;52.144;5.360;2024-03-02T02:30:58;1.63;;;0.60;;
70796;SDS011;63842;52.144;5.360;2024-03-02T02:33:27;1.67;;;0.63;;
70796;SDS011;63842;52.144;5.360;2024-03-02T02:35:54;2.05;;;0.65;;
70796;SDS011;63842;52.144;5.360;2024-03-02T02:38:22;1.58;;;0.60;;
70796;SDS011;63842;52.144;5.360;2024-03-02T02:40:49;1.13;;;0.55;;
70796;SDS011;63842;52.144;5.360;2024-03-02T02:43:16;1.73;;;0.60;;
70796;SDS011;63842;52.144;5.360;2024-03-02T02:45:44;2.08;;;0.60;;
70796;SDS011;63842;52.144;5.360;2024-03-02T02:48:11;1.65;;;0.70;;
70796;SDS011;63842;52.144;5.360;2024-03-02T02:50:39;1.80;;;0.70;;
70796;SDS011;63842;52.144;5.360;2024-03-02T02:53:07;1.58;;;0.60;;
70796;SDS011;63842;52.144;5.360;2024-03-02T02:55:41;2.33;;;0.65;;
70796;SDS011;63842;52.144;5.360;2024-03-02T02:58:12;1.30;;;0.38;;
70796;SDS011;63842;52.144;5.360;2024-03-02T03:00:39;1.75;;;0.57;;
70796;SDS011;63842;52.144;5.360;2024-03-02T03:03:08;1.92;;;0.60;;
70796;SDS011;63842;52.144;5.360;2024-03-02T03:05:35;1.48;;;0.60;;
70796;SDS011;63842;52.144;5.360;2024-03-02T03:08:03;1.02;;;0.40;;
70796;SDS011;63842;52.144;5.360;2024-03-02T03:10:30;0.93;;;0.52;;
70796;SDS011;63842;52.144;5.360;2024-03-02T03:12:57;2.63;;;0.55;;
70796;SDS011;63842;52.144;5.360;2024-03-02T03:15:25;0.93;;;0.50;;
70796;SDS011;63842;52.144;5.360;2024-03-02T03:17:53;1.65;;;0.52;;
70796;SDS011;63842;52.144;5.360;2024-03-02T03:20:20;1.38;;;0.70;;
70796;SDS011;63842;52.144;5.360;2024-03-02T03:22:49;0.63;;;0.45;;
70796;SDS011;63842;52.144;5.360;2024-03-02T03:25:16;1.95;;;0.50;;
70796;SDS011;63842;52.144;5.360;2024-03-02T03:27:44;0.85;;;0.47;;
70796;SDS011;63842;52.144;5.360;2024-03-02T03:30:12;1.42;;;0.45;;
70796;SDS011;63842;52.144;5.360;2024-03-02T03:32:40;1.00;;;0.50;;
70796;SDS011;63842;52.144;5.360;2024-03-02T03:35:08;2.17;;;0.60;;
70796;SDS011;63842;52.144;5.360;2024-03-02T03:37:35;0.50;;;0.43;;
70796;SDS011;63842;52.144;5.360;2024-03-02T03:40:03;1.73;;;0.52;;
70796;SDS011;63842;52.144;5.360;2024-03-02T03:42:36;1.05;;;0.30;;
70796;SDS011;63842;52.144;5.360;2024-03-02T03:45:05;1.08;;;0.38;;
70796;SDS011;63842;52.144;5.360;2024-03-02T03:47:33;1.90;;;0.43;;
70796;SDS011;63842;52.144;5.360;2024-03-02T03:50:00;0.93;;;0.40;;
70796;SDS011;63842;52.144;5.360;2024-03-02T03:52:31;3.10;;;0.47;;
70796;SDS011;63842;52.144;5.360;2024-03-02T03:54:58;1.38;;;0.50;;
70796;SDS011;63842;52.144;5.360;2024-03-02T03:57:26;1.08;;;0.40;;
70796;SDS011;63842;52.144;5.360;2024-03-02T03:59:54;1.98;;;0.50;;
70796;SDS011;63842;52.144;5.360;2024-03-02T04:02:21;0.52;;;0.43;;
70796;SDS011;63842;52.144;5.360;2024-03-02T04:04:52;0.93;;;0.40;;
70796;SDS011;63842;52.144;5.360;2024-03-02T04:07:19;1.15;;;0.57;;
70796;SDS011;63842;52.144;5.360;2024-03-02T04:09:46;1.13;;;0.45;;
70796;SDS011;63842;52.144;5.360;2024-03-02T04:12:14;0.93;;;0.60;;
70796;SDS011;63842;52.144;5.360;2024-03-02T04:14:41;1.50;;;0.57;;
70796;SDS011;63842;52.144;5.360;2024-03-02T04:17:11;1.02;;;0.40;;
70796;SDS011;63842;52.144;5.360;2024-03-02T04:19:39;1.45;;;0.40;;
70796;SDS011;63842;52.144;5.360;2024-03-02T04:22:06;1.85;;;0.50;;
70796;SDS011;63842;52.144;5.360;2024-03-02T04:24:46;1.00;;;0.50;;
70796;SDS011;63842;52.144;5.360;2024-03-02T04:27:14;1.27;;;0.52;;
70796;SDS011;63842;52.144;5.360;2024-03-02T04:29:41;1.08;;;0.52;;
70796;SDS011;63842;52.144;5.360;2024-03-02T04:32:08;1.48;;;0.73;;
70796;SDS011;63842;52.144;5.360;2024-03-02T04:34:36;0.95;;;0.50;;
70796;SDS011;63842;52.144;5.360;2024-03-02T04:37:03;1.33;;;0.50;;
70796;SDS011;63842;52.144;5.360;2024-03-02T04:39:31;2.50;;;0.52;;
70796;SDS011;63842;52.144;5.360;2024-03-02T04:41:58;0.75;;;0.40;;
70796;SDS011;63842;52.144;5.360;2024-03-02T04:44:25;1.73;;;0.70;;
70796;SDS011;63842;52.144;5.360;2024-03-02T04:46:53;3.25;;;0.70;;
70796;SDS011;63842;52.144;5.360;2024-03-02T04:49:22;1.83;;;0.60;;
70796;SDS011;63842;52.144;5.360;2024-03-02T04:51:49;5.40;;;0.68;;
70796;SDS011;63842;52.144;5.360;2024-03-02T04:54:17;1.63;;;0.60;;
70796;SDS011;63842;52.144;5.360;2024-03-02T04:56:45;1.98;;;0.60;;
70796;SDS011;63842;52.144;5.360;2024-03-02T04:59:17;0.88;;;0.50;;
70796;SDS011;63842;52.144;5.360;2024-03-02T05:01:45;1.85;;;0.60;;
70796;SDS011;63842;52.144;5.360;2024-03-02T05:04:13;4.53;;;0.60;;
70796;SDS011;63842;52.144;5.360;2024-03-02T05:06:41;1.10;;;0.40;;
70796;SDS011;63842;52.144;5.360;2024-03-02T05:09:09;1.88;;;0.75;;
70796;SDS011;63842;52.144;5.360;2024-03-02T05:11:37;2.40;;;0.63;;
70796;SDS011;63842;52.144;5.360;2024-03-02T05:14:05;2.15;;;0.70;;
70796;SDS011;63842;52.144;5.360;2024-03-02T05:16:33;2.47;;;0.50;;
70796;SDS011;63842;52.144;5.360;2024-03-02T05:19:01;1.25;;;0.40;;
70796;SDS011;63842;52.144;5.360;2024-03-02T05:21:28;1.23;;;0.55;;
70796;SDS011;63842;52.144;5.360;2024-03-02T05:23:56;2.03;;;0.75;;
70796;SDS011;63842;52.144;5.360;2024-03-02T05:26:23;1.08;;;0.45;;
70796;SDS011;63842;52.144;5.360;2024-03-02T05:28:51;3.28;;;0.52;;
70796;SDS011;63842;52.144;5.360;2024-03-02T05:31:18;1.30;;;0.60;;
70796;SDS011;63842;52.144;5.360;2024-03-02T05:33:45;1.33;;;0.50;;
70796;SDS011;63842;52.144;5.360;2024-03-02T05:36:13;2.42;;;0.40;;
70796;SDS011;63842;52.144;5.360;2024-03-02T05:38:41;2.53;;;0.50;;
70796;SDS011;63842;52.144;5.360;2024-03-02T05:41:09;1.33;;;0.50;;
70796;SDS011;63842;52.144;5.360;2024-03-02T05:43:39;2.15;;;0.70;;
70796;SDS011;63842;52.144;5.360;2024-03-02T05:46:06;1.95;;;0.50;;
70796;SDS011;63842;52.144;5.360;2024-03-02T05:48:34;1.55;;;0.45;;
70796;SDS011;63842;52.144;5.360;2024-03-02T05:51:02;1.25;;;0.50;;
70796;SDS011;63842;52.144;5.360;2024-03-02T05:53:29;2.78;;;0.80;;
70796;SDS011;63842;52.144;5.360;2024-03-02T05:55:57;4.20;;;0.63;;
70796;SDS011;63842;52.144;5.360;2024-03-02T05:58:27;4.28;;;0.68;;
70796;SDS011;63842;52.144;5.360;2024-03-02T06:01:12;1.35;;;0.50;;
70796;SDS011;63842;52.144;5.360;2024-03-02T06:03:40;1.77;;;0.28;;
70796;SDS011;63842;52.144;5.360;2024-03-02T06:06:07;1.85;;;0.60;;
70796;SDS011;63842;52.144;5.360;2024-03-02T06:08:35;2.80;;;0.50;;
70796;SDS011;63842;52.144;5.360;2024-03-02T06:11:05;1.85;;;0.52;;
70796;SDS011;63842;52.144;5.360;2024-03-02T06:13:33;1.92;;;0.50;;
70796;SDS011;63842;52.144;5.360;2024-03-02T06:16:00;1.80;;;0.40;;
70796;SDS011;63842;52.144;5.360;2024-03-02T06:18:30;2.72;;;0.50;;
70796;SDS011;63842;52.144;5.360;2024-03-02T06:20:58;1.83;;;0.60;;
70796;SDS011;63842;52.144;5.360;2024-03-02T06:23:25;2.97;;;0.60;;
70796;SDS011;63842;52.144;5.360;2024-03-02T06:25:52;1.23;;;0.43;;
70796;SDS011;63842;52.144;5.360;2024-03-02T06:28:20;1.77;;;0.75;;
70796;SDS011;63842;52.144;5.360;2024-03-02T06:30:47;3.05;;;0.80;;
70796;SDS011;63842;52.144;5.360;2024-03-02T06:33:15;1.33;;;0.60;;
70796;SDS011;63842;52.144;5.360;2024-03-02T06:35:43;2.55;;;0.60;;
70796;SDS011;63842;52.144;5.360;2024-03-02T06:38:10;2.10;;;0.73;;
70796;SDS011;63842;52.144;5.360;2024-03-02T06:40:38;2.05;;;0.65;;
70796;SDS011;63842;52.144;5.360;2024-03-02T06:43:06;2.05;;;0.52;;
70796;SDS011;63842;52.144;5.360;2024-03-02T06:45:33;2.85;;;0.63;;
70796;SDS011;63842;52.144;5.360;2024-03-02T06:48:01;1.40;;;0.43;;
70796;SDS011;63842;52.144;5.360;2024-03-02T06:50:28;1.45;;;0.50;;
70796;SDS011;63842;52.144;5.360;2024-03-02T06:52:56;1.80;;;0.57;;
70796;SDS011;63842;52.144;5.360;2024-03-02T06:55:24;1.27;;;0.47;;
70796;SDS011;63842;52.144;5.360;2024-03-02T06:57:51;1.48;;;0.50;;
70796;SDS011;63842;52.144;5.360;2024-03-02T07:00:19;3.13;;;1.13;;
70796;SDS011;63842;52.144;5.360;2024-03-02T07:02:47;1.33;;;0.60;;
70796;SDS011;63842;52.144;5.360;2024-03-02T07:05:14;2.28;;;0.68;;
70796;SDS011;63842;52.144;5.360;2024-03-02T07:07:43;2.67;;;0.70;;
70796;SDS011;63842;52.144;5.360;2024-03-02T07:10:10;4.22;;;0.70;;
70796;SDS011;63842;52.144;5.360;2024-03-02T07:12:38;2.97;;;0.63;;
70796;SDS011;63842;52.144;5.360;2024-03-02T07:15:05;1.35;;;0.45;;
70796;SDS011;63842;52.144;5.360;2024-03-02T07:17:33;1.40;;;0.60;;
70796;SDS011;63842;52.144;5.360;2024-03-02T07:20:00;1.83;;;0.60;;
70796;SDS011;63842;52.144;5.360;2024-03-02T07:22:28;3.05;;;0.60;;
70796;SDS011;63842;52.144;5.360;2024-03-02T07:24:55;2.03;;;0.65;;
70796;SDS011;63842;52.144;5.360;2024-03-02T07:27:23;2.38;;;0.80;;
70796;SDS011;63842;52.144;5.360;2024-03-02T07:29:50;1.60;;;0.50;;
70796;SDS011;63842;52.144;5.360;2024-03-02T07:32:18;2.75;;;0.70;;
70796;SDS011;63842;52.144;5.360;2024-03-02T07:34:45;1.90;;;0.80;;
70796;SDS011;63842;52.144;5.360;2024-03-02T07:37:13;0.90;;;0.45;;
70796;SDS011;63842;52.144;5.360;2024-03-02T07:39:40;1.92;;;0.57;;
70796;SDS011;63842;52.144;5.360;2024-03-02T07:42:10;2.20;;;0.57;;
70796;SDS011;63842;52.144;5.360;2024-03-02T07:44:41;1.92;;;0.50;;
70796;SDS011;63842;52.144;5.360;2024-03-02T07:47:08;2.20;;;0.50;;
70796;SDS011;63842;52.144;5.360;2024-03-02T07:49:36;1.27;;;0.68;;
70796;SDS011;63842;52.144;5.360;2024-03-02T07:52:03;1.25;;;0.50;;
70796;SDS011;63842;52.144;5.360;2024-03-02T07:54:31;3.58;;;0.80;;
70796;SDS011;63842;52.144;5.360;2024-03-02T07:56:58;2.05;;;0.65;;
70796;SDS011;63842;52.144;5.360;2024-03-02T07:59:26;1.83;;;0.52;;
70796;SDS011;63842;52.144;5.360;2024-03-02T08:01:53;2.58;;;0.55;;
70796;SDS011;63842;52.144;5.360;2024-03-02T08:04:23;1.95;;;0.60;;
70796;SDS011;63842;52.144;5.360;2024-03-02T08:06:51;1.23;;;0.50;;
70796;SDS011;63842;52.144;5.360;2024-03-02T08:09:18;1.85;;;0.60;;
70796;SDS011;63842;52.144;5.360;2024-03-02T08:11:46;1.48;;;0.52;;
70796;SDS011;63842;52.144;5.360;2024-03-02T08:14:16;1.73;;;0.50;;
70796;SDS011;63842;52.144;5.360;2024-03-02T08:16:44;3.03;;;0.75;;
70796;SDS011;63842;52.144;5.360;2024-03-02T08:19:12;2.53;;;0.43;;
70796;SDS011;63842;52.144;5.360;2024-03-02T08:21:42;3.30;;;0.70;;
70796;SDS011;63842;52.144;5.360;2024-03-02T08:24:10;3.25;;;0.52;;
70796;SDS011;63842;52.144;5.360;2024-03-02T08:26:39;2.35;;;0.65;;
70796;SDS011;63842;52.144;5.360;2024-03-02T08:29:06;1.40;;;0.50;;
70796;SDS011;63842;52.144;5.360;2024-03-02T08:31:34;5.43;;;0.80;;
70796;SDS011;63842;52.144;5.360;2024-03-02T08:34:04;1.70;;;0.70;;
70796;SDS011;63842;52.144;5.360;2024-03-02T08:36:32;1.42;;;0.60;;
70796;SDS011;63842;52.144;5.360;2024-03-02T08:38:59;1.50;;;0.52;;
70796;SDS011;63842;52.144;5.360;2024-03-02T08:41:27;2.15;;;0.57;;
70796;SDS011;63842;52.144;5.360;2024-03-02T08:43:54;3.22;;;0.70;;
70796;SDS011;63842;52.144;5.360;2024-03-02T08:46:22;1.85;;;0.63;;
70796;SDS011;63842;52.144;5.360;2024-03-02T08:48:52;1.67;;;0.82;;
70796;SDS011;63842;52.144;5.360;2024-03-02T08:51:20;3.22;;;0.60;;
70796;SDS011;63842;52.144;5.360;2024-03-02T08:53:47;3.60;;;0.65;;
70796;SDS011;63842;52.144;5.360;2024-03-02T08:56:15;3.88;;;0.80;;
70796;SDS011;63842;52.144;5.360;2024-03-02T08:58:43;2.20;;;0.60;;
70796;SDS011;63842;52.144;5.360;2024-03-02T09:01:10;3.80;;;0.70;;
70796;SDS011;63842;52.144;5.360;2024-03-02T09:03:38;2.95;;;0.70;;
70796;SDS011;63842;52.144;5.360;2024-03-02T09:06:05;2.50;;;0.40;;
70796;SDS011;63842;52.144;5.360;2024-03-02T09:08:33;2.50;;;0.55;;
70796;SDS011;63842;52.144;5.360;2024-03-02T09:13:30;2.40;;;0.70;;
70796;SDS011;63842;52.144;5.360;2024-03-02T09:15:57;5.68;;;0.63;;
70796;SDS011;63842;52.144;5.360;2024-03-02T09:18:25;2.03;;;0.65;;
70796;SDS011;63842;52.144;5.360;2024-03-02T09:20:52;5.53;;;1.15;;
70796;SDS011;63842;52.144;5.360;2024-03-02T09:23:20;3.47;;;0.75;;
70796;SDS011;63842;52.144;5.360;2024-03-02T09:25:49;4.00;;;0.65;;
70796;SDS011;63842;52.144;5.360;2024-03-02T09:28:16;4.05;;;0.60;;
70796;SDS011;63842;52.144;5.360;2024-03-02T09:30:44;3.10;;;0.70;;
70796;SDS011;63842;52.144;5.360;2024-03-02T09:33:11;3.38;;;0.73;;
70796;SDS011;63842;52.144;5.360;2024-03-02T09:35:42;4.10;;;0.68;;
70796;SDS011;63842;52.144;5.360;2024-03-02T09:38:09;5.68;;;1.08;;
70796;SDS011;63842;52.144;5.360;2024-03-02T09:40:37;4.80;;;1.00;;
70796;SDS011;63842;52.144;5.360;2024-03-02T09:43:04;5.10;;;1.00;;
70796;SDS011;63842;52.144;5.360;2024-03-02T09:45:32;3.25;;;0.80;;
70796;SDS011;63842;52.144;5.360;2024-03-02T09:48:00;3.63;;;0.60;;
70796;SDS011;63842;52.144;5.360;2024-03-02T09:50:27;5.00;;;0.68;;
70796;SDS011;63842;52.144;5.360;2024-03-02T09:52:55;3.45;;;0.90;;
70796;SDS011;63842;52.144;5.360;2024-03-02T09:55:22;3.47;;;0.80;;
70796;SDS011;63842;52.144;5.360;2024-03-02T09:57:51;6.45;;;0.75;;
70796;SDS011;63842;52.144;5.360;2024-03-02T10:00:21;4.90;;;0.90;;
70796;SDS011;63842;52.144;5.360;2024-03-02T10:02:51;4.88;;;0.80;;
70796;SDS011;63842;52.144;5.360;2024-03-02T10:05:25;5.30;;;0.82;;
70796;SDS011;63842;52.144;5.360;2024-03-02T10:08:01;4.55;;;0.80;;
70796;SDS011;63842;52.144;5.360;2024-03-02T10:10:38;3.38;;;0.73;;
70796;SDS011;63842;52.144;5.360;2024-03-02T10:13:07;3.58;;;0.68;;
70796;SDS011;63842;52.144;5.360;2024-03-02T10:15:35;4.32;;;0.75;;
70796;SDS011;63842;52.144;5.360;2024-03-02T10:18:04;3.60;;;0.90;;
70796;SDS011;63842;52.144;5.360;2024-03-02T10:20:31;3.17;;;0.93;;
70796;SDS011;63842;52.144;5.360;2024-03-02T10:23:09;6.10;;;1.20;;
70796;SDS011;63842;52.144;5.360;2024-03-02T10:25:38;5.40;;;0.90;;
70796;SDS011;63842;52.144;5.360;2024-03-02T10:28:19;7.05;;;1.00;;
70796;SDS011;63842;52.144;5.360;2024-03-02T10:30:47;3.67;;;0.60;;
70796;SDS011;63842;52.144;5.360;2024-03-02T10:33:17;5.95;;;0.98;;
70796;SDS011;63842;52.144;5.360;2024-03-02T10:35:44;3.97;;;0.90;;
70796;SDS011;63842;52.144;5.360;2024-03-02T10:38:12;4.97;;;0.88;;
70796;SDS011;63842;52.144;5.360;2024-03-02T10:40:39;3.08;;;0.85;;
70796;SDS011;63842;52.144;5.360;2024-03-02T10:43:07;3.88;;;0.70;;
70796;SDS011;63842;52.144;5.360;2024-03-02T10:45:34;4.93;;;0.73;;
70796;SDS011;63842;52.144;5.360;2024-03-02T10:48:02;4.80;;;0.73;;
70796;SDS011;63842;52.144;5.360;2024-03-02T10:50:32;4.95;;;1.00;;
70796;SDS011;63842;52.144;5.360;2024-03-02T10:52:59;6.25;;;0.80;;
70796;SDS011;63842;52.144;5.360;2024-03-02T10:55:27;3.60;;;0.65;;
70796;SDS011;63842;52.144;5.360;2024-03-02T10:57:57;2.47;;;0.80;;
70796;SDS011;63842;52.144;5.360;2024-03-02T11:00:25;5.05;;;0.80;;
70796;SDS011;63842;52.144;5.360;2024-03-02T11:02:57;3.53;;;0.90;;
70796;SDS011;63842;52.144;5.360;2024-03-02T11:05:28;4.55;;;0.50;;
70796;SDS011;63842;52.144;5.360;2024-03-02T11:08:04;3.10;;;0.80;;
70796;SDS011;63842;52.144;5.360;2024-03-02T11:10:41;4.57;;;0.60;;
70796;SDS011;63842;52.144;5.360;2024-03-02T11:13:11;5.28;;;0.75;;
70796;SDS011;63842;52.144;5.360;2024-03-02T11:15:45;3.70;;;0.73;;
70796;SDS011;63842;52.144;5.360;2024-03-02T11:18:13;3.15;;;0.60;;
70796;SDS011;63842;52.144;5.360;2024-03-02T11:20:42;4.50;;;0.70;;
70796;SDS011;63842;52.144;5.360;2024-03-02T11:23:10;3.03;;;0.60;;
70796;SDS011;63842;52.144;5.360;2024-03-02T11:25:37;3.90;;;0.80;;
70796;SDS011;63842;52.144;5.360;2024-03-02T11:28:06;6.28;;;0.90;;
70796;SDS011;63842;52.144;5.360;2024-03-02T11:33:06;3.85;;;0.70;;
70796;SDS011;63842;52.144;5.360;2024-03-02T11:35:34;3.03;;;0.80;;
70796;SDS011;63842;52.144;5.360;2024-03-02T11:38:02;4.13;;;0.70;;
70796;SDS011;63842;52.144;5.360;2024-03-02T11:40:30;5.88;;;1.50;;
70796;SDS011;63842;52.144;5.360;2024-03-02T11:42:59;1.98;;;0.60;;
70796;SDS011;63842;52.144;5.360;2024-03-02T11:45:27;2.72;;;0.70;;
70796;SDS011;63842;52.144;5.360;2024-03-02T11:47:54;3.55;;;1.00;;
70796;SDS011;63842;52.144;5.360;2024-03-02T11:52:57;4.82;;;0.68;;
70796;SDS011;63842;52.144;5.360;2024-03-02T11:55:25;2.72;;;0.60;;
70796;SDS011;63842;52.144;5.360;2024-03-02T11:57:53;2.65;;;0.60;;
70796;SDS011;63842;52.144;5.360;2024-03-02T12:00:24;4.25;;;0.60;;
70796;SDS011;63842;52.144;5.360;2024-03-02T12:03:02;3.08;;;0.63;;
70796;SDS011;63842;52.144;5.360;2024-03-02T12:05:30;4.40;;;0.70;;
70796;SDS011;63842;52.144;5.360;2024-03-02T12:08:02;1.58;;;0.50;;
70796;SDS011;63842;52.144;5.360;2024-03-02T12:10:30;2.90;;;0.80;;
70796;SDS011;63842;52.144;5.360;2024-03-02T12:13:07;1.30;;;0.50;;
70796;SDS011;63842;52.144;5.360;2024-03-02T12:15:38;4.93;;;0.90;;
70796;SDS011;63842;52.144;5.360;2024-03-02T12:18:06;2.20;;;0.60;;
70796;SDS011;63842;52.144;5.360;2024-03-02T12:20:34;2.55;;;0.60;;
70796;SDS011;63842;52.144;5.360;2024-03-02T12:23:04;4.63;;;0.45;;
70796;SDS011;63842;52.144;5.360;2024-03-02T12:25:32;2.92;;;0.70;;
70796;SDS011;63842;52.144;5.360;2024-03-02T12:28:00;2.55;;;0.52;;
70796;SDS011;63842;52.144;5.360;2024-03-02T12:30:31;5.00;;;0.80;;
70796;SDS011;63842;52.144;5.360;2024-03-02T12:33:02;1.58;;;0.60;;
70796;SDS011;63842;52.144;5.360;2024-03-02T12:35:30;3.78;;;0.60;;
70796;SDS011;63842;52.144;5.360;2024-03-02T12:37:58;2.72;;;0.60;;
70796;SDS011;63842;52.144;5.360;2024-03-02T12:40:25;1.02;;;0.50;;
70796;SDS011;63842;52.144;5.360;2024-03-02T12:42:53;3.90;;;0.80;;
70796;SDS011;63842;52.144;5.360;2024-03-02T12:45:21;5.78;;;0.70;;
70796;SDS011;63842;52.144;5.360;2024-03-02T12:47:52;3.90;;;0.70;;
70796;SDS011;63842;52.144;5.360;2024-03-02T12:50:20;4.20;;;0.77;;
70796;SDS011;63842;52.144;5.360;2024-03-02T12:52:51;4.18;;;0.70;;
70796;SDS011;63842;52.144;5.360;2024-03-02T12:55:19;3.17;;;0.80;;
70796;SDS011;63842;52.144;5.360;2024-03-02T12:57:49;2.53;;;0.60;;
70796;SDS011;63842;52.144;5.360;2024-03-02T13:02:45;4.13;;;0.80;;
70796;SDS011;63842;52.144;5.360;2024-03-02T13:05:13;5.20;;;0.82;;
70796;SDS011;63842;52.144;5.360;2024-03-02T13:07:40;3.42;;;0.70;;
70796;SDS011;63842;52.144;5.360;2024-03-02T13:10:12;4.00;;;0.82;;
70796;SDS011;63842;52.144;5.360;2024-03-02T13:12:39;3.53;;;1.20;;
70796;SDS011;63842;52.144;5.360;2024-03-02T13:15:08;3.38;;;0.70;;
70796;SDS011;63842;52.144;5.360;2024-03-02T13:17:37;3.03;;;0.80;;
70796;SDS011;63842;52.144;5.360;2024-03-02T13:20:06;4.28;;;0.85;;
70796;SDS011;63842;52.144;5.360;2024-03-02T13:22:37;3.75;;;1.00;;
70796;SDS011;63842;52.144;5.360;2024-03-02T13:25:10;4.45;;;0.80;;
70796;SDS011;63842;52.144;5.360;2024-03-02T13:27:38;3.55;;;0.73;;
70796;SDS011;63842;52.144;5.360;2024-03-02T13:30:06;4.38;;;0.90;;
70796;SDS011;63842;52.144;5.360;2024-03-02T13:32:35;4.22;;;1.23;;
70796;SDS011;63842;52.144;5.360;2024-03-02T13:35:02;3.70;;;0.98;;
70796;SDS011;63842;52.144;5.360;2024-03-02T13:37:30;3.85;;;1.00;;
70796;SDS011;63842;52.144;5.360;2024-03-02T13:39:57;2.05;;;0.65;;
70796;SDS011;63842;52.144;5.360;2024-03-02T13:42:25;7.32;;;1.05;;
70796;SDS011;63842;52.144;5.360;2024-03-02T13:44:54;4.50;;;1.10;;
70796;SDS011;63842;52.144;5.360;2024-03-02T13:47:24;3.42;;;0.73;;
70796;SDS011;63842;52.144;5.360;2024-03-02T13:50:01;5.18;;;0.90;;
70796;SDS011;63842;52.144;5.360;2024-03-02T13:52:29;3.00;;;0.90;;
70796;SDS011;63842;52.144;5.360;2024-03-02T13:54:56;4.65;;;1.00;;
70796;SDS011;63842;52.144;5.360;2024-03-02T13:57:24;5.72;;;1.52;;
70796;SDS011;63842;52.144;5.360;2024-03-02T13:59:52;6.38;;;1.05;;
70796;SDS011;63842;52.144;5.360;2024-03-02T14:02:21;6.18;;;1.10;;
70796;SDS011;63842;52.144;5.360;2024-03-02T14:04:48;3.65;;;1.10;;
70796;SDS011;63842;52.144;5.360;2024-03-02T14:07:17;4.57;;;1.55;;
70796;SDS011;63842;52.144;5.360;2024-03-02T14:09:44;8.30;;;1.77;;
70796;SDS011;63842;52.144;5.360;2024-03-02T14:12:15;8.43;;;1.60;;
70796;SDS011;63842;52.144;5.360;2024-03-02T14:14:43;7.93;;;1.40;;
70796;SDS011;63842;52.144;5.360;2024-03-02T14:17:10;5.25;;;1.33;;
70796;SDS011;63842;52.144;5.360;2024-03-02T14:19:41;7.00;;;1.40;;
70796;SDS011;63842;52.144;5.360;2024-03-02T14:22:09;5.07;;;1.00;;
70796;SDS011;63842;52.144;5.360;2024-03-02T14:24:36;6.50;;;1.70;;
70796;SDS011;63842;52.144;5.360;2024-03-02T14:27:04;5.22;;;1.48;;
70796;SDS011;63842;52.144;5.360;2024-03-02T14:29:49;4.93;;;1.42;;
70796;SDS011;63842;52.144;5.360;2024-03-02T14:32:20;4.00;;;1.23;;
70796;SDS011;63842;52.144;5.360;2024-03-02T14:34:50;4.07;;;1.15;;
70796;SDS011;63842;52.144;5.360;2024-03-02T14:37:17;6.35;;;1.25;;
70796;SDS011;63842;52.144;5.360;2024-03-02T14:39:45;1.95;;;1.02;;
70796;SDS011;63842;52.144;5.360;2024-03-02T14:42:13;3.63;;;1.00;;
70796;SDS011;63842;52.144;5.360;2024-03-02T14:44:41;6.22;;;1.20;;
70796;SDS011;63842;52.144;5.360;2024-03-02T14:47:09;3.35;;;1.30;;
70796;SDS011;63842;52.144;5.360;2024-03-02T14:49:36;6.03;;;1.00;;
70796;SDS011;63842;52.144;5.360;2024-03-02T14:52:08;3.45;;;0.95;;
70796;SDS011;63842;52.144;5.360;2024-03-02T14:54:35;5.00;;;1.10;;
70796;SDS011;63842;52.144;5.360;2024-03-02T14:57:04;3.97;;;1.10;;
70796;SDS011;63842;52.144;5.360;2024-03-02T14:59:33;5.25;;;1.00;;
70796;SDS011;63842;52.144;5.360;2024-03-02T15:02:00;3.92;;;0.90;;
70796;SDS011;63842;52.144;5.360;2024-03-02T15:04:27;3.45;;;1.00;;
70796;SDS011;63842;52.144;5.360;2024-03-02T15:06:55;2.92;;;1.00;;
70796;SDS011;63842;52.144;5.360;2024-03-02T15:09:22;4.75;;;1.00;;
70796;SDS011;63842;52.144;5.360;2024-03-02T15:11:50;4.68;;;1.10;;
70796;SDS011;63842;52.144;5.360;2024-03-02T15:14:18;5.20;;;1.15;;